Time,TemperatureF,DewpointF,PressureIn,WindDirection,WindDirectionDegrees,WindSpeedMPH,WindSpeedGustMPH,Humidity,HourlyPrecipIn,Conditions,Clouds,dailyrainin,SoftwareType,DateUTC
2013-05-13 00:07:00,44.3,30.0,29.79,ESE,104,0.0,1.0,57,0.00,,,0.00,weatherlink.com 1.10,2013-05-13 04:07:00,
2013-05-13 00:22:00,43.6,30.0,29.80,NNW,335,0.0,1.0,59,0.00,,,0.00,weatherlink.com 1.10,2013-05-13 04:22:00,
2013-05-13 00:37:00,43.5,28.0,29.80,ENE,70,1.0,2.0,54,0.00,,,0.00,weatherlink.com 1.10,2013-05-13 04:37:00,
2013-05-13 00:52:00,44.0,28.0,29.80,ENE,59,2.0,3.0,53,0.00,,,0.00,weatherlink.com 1.10,2013-05-13 04:52:00,
2013-05-13 01:07:00,43.8,29.0,29.81,ENE,75,0.0,2.0,56,0.00,,,0.00,weatherlink.com 1.10,2013-05-13 05:07:00,
2013-05-13 01:22:00,43.1,29.0,29.81,NE,44,0.0,2.0,59,0.00,,,0.00,weatherlink.com 1.10,2013-05-13 05:22:00,
2013-05-13 01:37:00,42.6,30.0,29.82,NE,44,0.0,1.0,61,0.00,,,0.00,weatherlink.com 1.10,2013-05-13 05:37:00,
2013-05-13 01:52:00,41.9,28.0,29.81,ENE,59,1.0,1.0,59,0.00,,,0.00,weatherlink.com 1.10,2013-05-13 05:52:00,
2013-05-13 02:07:00,41.7,29.0,29.81,North,349,0.0,3.0,62,0.00,,,0.00,weatherlink.com 1.10,2013-05-13 06:07:00,
2013-05-13 02:22:00,42.4,30.0,29.82,North,355,1.0,4.0,62,0.00,,,0.00,weatherlink.com 1.10,2013-05-13 06:22:00,
2013-05-13 02:37:00,42.4,30.0,29.82,WSW,250,0.0,6.0,62,0.00,,,0.00,weatherlink.com 1.10,2013-05-13 06:37:00,
2013-05-13 02:52:00,42.3,31.0,29.82,ESE,113,0.0,5.0,64,0.00,,,0.00,weatherlink.com 1.10,2013-05-13 06:52:00,
2013-05-13 03:07:00,41.7,31.0,29.83,NW,309,0.0,3.0,66,0.00,,,0.00,weatherlink.com 1.10,2013-05-13 07:07:00,
2013-05-13 03:22:00,41.4,31.0,29.83,NE,37,3.0,5.0,66,0.00,,,0.00,weatherlink.com 1.10,2013-05-13 07:22:00,
2013-05-13 03:37:00,41.4,31.0,29.83,ESE,115,2.0,5.0,66,0.00,,,0.00,weatherlink.com 1.10,2013-05-13 07:37:00,
2013-05-13 03:52:00,41.2,31.0,29.83,NNE,30,2.0,3.0,66,0.00,,,0.00,weatherlink.com 1.10,2013-05-13 07:52:00,
2013-05-13 04:07:00,40.9,31.0,29.83,NNW,336,0.0,2.0,67,0.00,,,0.00,weatherlink.com 1.10,2013-05-13 08:07:00,
2013-05-13 04:22:00,40.6,30.0,29.83,SSW,201,0.0,4.0,67,0.00,,,0.00,weatherlink.com 1.10,2013-05-13 08:22:00,
2013-05-13 04:38:00,40.4,30.0,29.84,SSW,201,0.0,4.0,67,0.00,,,0.00,weatherlink.com 1.10,2013-05-13 08:38:00,
2013-05-13 04:53:00,40.5,29.0,29.84,NNW,347,0.0,8.0,65,0.00,,,0.00,weatherlink.com 1.10,2013-05-13 08:53:00,
2013-05-13 05:08:00,40.6,29.0,29.85,WSW,239,1.0,5.0,63,0.00,,,0.00,weatherlink.com 1.10,2013-05-13 09:08:00,
2013-05-13 05:23:00,40.5,29.0,29.86,ESE,118,2.0,4.0,63,0.00,,,0.00,weatherlink.com 1.10,2013-05-13 09:23:00,
2013-05-13 05:38:00,40.1,28.0,29.86,West,280,3.0,7.0,63,0.00,,,0.00,weatherlink.com 1.10,2013-05-13 09:38:00,
2013-05-13 05:53:00,40.0,29.0,29.86,SW,215,0.0,5.0,65,0.00,,,0.00,weatherlink.com 1.10,2013-05-13 09:53:00,
2013-05-13 06:08:00,40.3,28.0,29.87,WSW,245,1.0,3.0,63,0.00,,,0.00,weatherlink.com 1.10,2013-05-13 10:08:00,
2013-05-13 06:23:00,40.7,30.0,29.87,SW,215,1.0,2.0,65,0.00,,,0.00,weatherlink.com 1.10,2013-05-13 10:23:00,
2013-05-13 06:38:00,41.5,29.0,29.88,WSW,249,1.0,5.0,62,0.00,,,0.00,weatherlink.com 1.10,2013-05-13 10:38:00,
2013-05-13 06:53:00,41.9,29.0,29.88,South,169,2.0,5.0,61,0.00,,,0.00,weatherlink.com 1.10,2013-05-13 10:53:00,
2013-05-13 07:08:00,42.2,30.0,29.89,SE,137,0.0,1.0,62,0.00,,,0.00,weatherlink.com 1.10,2013-05-13 11:08:00,
2013-05-13 07:23:00,42.5,30.0,29.90,NNE,23,4.0,5.0,61,0.00,,,0.00,weatherlink.com 1.10,2013-05-13 11:23:00,
2013-05-13 07:38:00,42.9,29.0,29.90,NE,50,6.0,9.0,59,0.00,,,0.00,weatherlink.com 1.10,2013-05-13 11:38:00,
2013-05-13 07:53:00,43.4,30.0,29.91,ENE,68,1.0,3.0,60,0.00,,,0.00,weatherlink.com 1.10,2013-05-13 11:53:00,
2013-05-13 08:08:00,43.7,30.0,29.91,West,265,0.0,5.0,60,0.00,,,0.00,weatherlink.com 1.10,2013-05-13 12:08:00,
2013-05-13 08:23:00,43.9,31.0,29.92,SW,235,0.0,3.0,60,0.00,,,0.00,weatherlink.com 1.10,2013-05-13 12:23:00,
2013-05-13 08:38:00,44.0,31.0,29.92,WSW,243,0.0,9.0,60,0.00,,,0.00,weatherlink.com 1.10,2013-05-13 12:38:00,
2013-05-13 08:53:00,44.5,31.0,29.93,West,264,1.0,5.0,60,0.00,,,0.00,weatherlink.com 1.10,2013-05-13 12:53:00,
2013-05-13 09:08:00,45.9,30.0,29.93,East,97,1.0,9.0,55,0.00,,,0.00,weatherlink.com 1.10,2013-05-13 13:08:00,
2013-05-13 09:23:00,46.7,30.0,29.93,ENE,67,3.0,9.0,53,0.00,,,0.00,weatherlink.com 1.10,2013-05-13 13:23:00,
2013-05-13 09:38:00,47.1,33.0,29.93,North,356,5.0,10.0,58,0.00,,,0.00,weatherlink.com 1.10,2013-05-13 13:38:00,
2013-05-13 09:53:00,47.1,32.0,29.93,SE,131,2.0,7.0,56,0.00,,,0.00,weatherlink.com 1.10,2013-05-13 13:53:00,
2013-05-13 10:08:00,46.9,29.0,29.94,SSE,152,3.0,8.0,51,0.00,,,0.00,weatherlink.com 1.10,2013-05-13 14:08:00,
2013-05-13 10:23:00,46.3,30.0,29.95,ESE,120,4.0,8.0,54,0.00,,,0.00,weatherlink.com 1.10,2013-05-13 14:23:00,
2013-05-13 10:38:00,46.4,29.0,29.95,NNE,21,5.0,11.0,51,0.00,,,0.00,weatherlink.com 1.10,2013-05-13 14:38:00,
2013-05-13 10:53:00,46.7,29.0,29.95,ESE,105,5.0,9.0,50,0.00,,,0.00,weatherlink.com 1.10,2013-05-13 14:53:00,
2013-05-13 11:08:00,48.1,29.0,29.96,West,259,2.0,9.0,47,0.00,,,0.00,weatherlink.com 1.10,2013-05-13 15:08:00,
2013-05-13 11:23:00,50.0,29.0,29.95,SSE,165,3.0,9.0,45,0.00,,,0.00,weatherlink.com 1.10,2013-05-13 15:23:00,
2013-05-13 11:38:00,50.9,29.0,29.95,East,91,3.0,7.0,44,0.00,,,0.00,weatherlink.com 1.10,2013-05-13 15:38:00,
2013-05-13 11:53:00,49.7,29.0,29.96,North,352,1.0,7.0,46,0.00,,,0.00,weatherlink.com 1.10,2013-05-13 15:53:00,
2013-05-13 12:08:00,50.1,30.0,29.95,ENE,69,2.0,8.0,47,0.00,,,0.00,weatherlink.com 1.10,2013-05-13 16:08:00,
2013-05-13 12:23:00,52.6,34.0,29.95,WSW,250,2.0,8.0,49,0.00,,,0.00,weatherlink.com 1.10,2013-05-13 16:23:00,
2013-05-13 12:38:00,53.2,31.0,29.95,SSE,163,2.0,9.0,43,0.00,,,0.00,weatherlink.com 1.10,2013-05-13 16:38:00,
2013-05-13 12:54:00,53.7,30.0,29.96,WSW,245,2.0,8.0,40,0.00,,,0.00,weatherlink.com 1.10,2013-05-13 16:54:00,
2013-05-13 13:09:00,52.8,30.0,29.95,ENE,65,2.0,10.0,42,0.00,,,0.00,weatherlink.com 1.10,2013-05-13 17:09:00,
2013-05-13 13:24:00,53.7,28.0,29.95,WNW,293,2.0,6.0,38,0.00,,,0.00,weatherlink.com 1.10,2013-05-13 17:24:00,
2013-05-13 13:39:00,53.1,32.0,29.95,SSW,204,2.0,9.0,44,0.00,,,0.00,weatherlink.com 1.10,2013-05-13 17:39:00,
2013-05-13 13:54:00,54.1,31.0,29.96,WNW,291,0.0,8.0,41,0.00,,,0.00,weatherlink.com 1.10,2013-05-13 17:54:00,
2013-05-13 14:09:00,54.4,29.0,29.96,NE,52,3.0,5.0,38,0.00,,,0.00,weatherlink.com 1.10,2013-05-13 18:09:00,
2013-05-13 14:24:00,54.4,28.0,29.96,SSW,195,1.0,7.0,37,0.00,,,0.00,weatherlink.com 1.10,2013-05-13 18:24:00,
2013-05-13 14:39:00,54.7,31.0,29.96,East,99,2.0,7.0,40,0.00,,,0.00,weatherlink.com 1.10,2013-05-13 18:39:00,
2013-05-13 14:54:00,54.3,29.0,29.96,North,354,4.0,5.0,38,0.00,,,0.00,weatherlink.com 1.10,2013-05-13 18:54:00,
2013-05-13 15:09:00,53.2,28.0,29.96,NE,53,0.0,10.0,38,0.00,,,0.00,weatherlink.com 1.10,2013-05-13 19:09:00,
2013-05-13 15:24:00,54.9,29.0,29.96,NNW,340,1.0,9.0,37,0.00,,,0.00,weatherlink.com 1.10,2013-05-13 19:24:00,
2013-05-13 15:39:00,54.2,28.0,29.96,SSE,158,1.0,7.0,36,0.00,,,0.00,weatherlink.com 1.10,2013-05-13 19:39:00,
2013-05-13 15:54:00,53.7,28.0,29.95,WSW,243,2.0,21.0,38,0.00,,,0.00,weatherlink.com 1.10,2013-05-13 19:54:00,
2013-05-13 16:09:00,52.7,29.0,29.96,NE,48,5.0,8.0,41,0.00,,,0.00,weatherlink.com 1.10,2013-05-13 20:09:00,
2013-05-13 16:24:00,51.5,29.0,29.95,SE,136,6.0,13.0,43,0.00,,,0.00,weatherlink.com 1.10,2013-05-13 20:24:00,
2013-05-13 16:39:00,51.2,27.0,29.95,NNW,339,5.0,9.0,40,0.00,,,0.00,weatherlink.com 1.10,2013-05-13 20:39:00,
2013-05-13 16:54:00,52.0,29.0,29.95,SW,217,1.0,7.0,42,0.00,,,0.00,weatherlink.com 1.10,2013-05-13 20:54:00,
2013-05-13 17:09:00,52.0,29.0,29.95,SW,224,3.0,10.0,41,0.00,,,0.00,weatherlink.com 1.10,2013-05-13 21:09:00,
2013-05-13 17:24:00,50.9,28.0,29.95,SW,232,4.0,12.0,42,0.00,,,0.00,weatherlink.com 1.10,2013-05-13 21:24:00,
2013-05-13 17:39:00,51.1,27.0,29.95,ENE,72,1.0,7.0,40,0.00,,,0.00,weatherlink.com 1.10,2013-05-13 21:39:00,
2013-05-13 17:54:00,50.7,28.0,29.96,SSW,198,1.0,6.0,42,0.00,,,0.00,weatherlink.com 1.10,2013-05-13 21:54:00,
2013-05-13 18:09:00,50.0,28.0,29.96,North,350,3.0,4.0,43,0.00,,,0.00,weatherlink.com 1.10,2013-05-13 22:09:00,
2013-05-13 18:24:00,49.6,28.0,29.96,NNE,30,3.0,4.0,44,0.00,,,0.00,weatherlink.com 1.10,2013-05-13 22:24:00,
2013-05-13 18:39:00,49.3,29.0,29.97,NNE,21,0.0,4.0,45,0.00,,,0.00,weatherlink.com 1.10,2013-05-13 22:39:00,
2013-05-13 18:54:00,49.1,28.0,29.97,SSE,167,0.0,6.0,44,0.00,,,0.00,weatherlink.com 1.10,2013-05-13 22:54:00,
2013-05-13 19:09:00,48.5,29.0,29.98,North,356,1.0,5.0,48,0.00,,,0.00,weatherlink.com 1.10,2013-05-13 23:09:00,
2013-05-13 19:24:00,47.9,30.0,29.98,NNE,14,1.0,2.0,51,0.00,,,0.00,weatherlink.com 1.10,2013-05-13 23:24:00,
2013-05-13 19:39:00,47.6,29.0,29.98,NNE,30,0.0,5.0,49,0.00,,,0.00,weatherlink.com 1.10,2013-05-13 23:39:00,
2013-05-13 19:54:00,47.2,29.0,29.99,ENE,65,0.0,3.0,50,0.00,,,0.00,weatherlink.com 1.10,2013-05-13 23:54:00,
2013-05-13 20:09:00,46.6,30.0,29.99,North,355,0.0,3.0,53,0.00,,,0.00,weatherlink.com 1.10,2013-05-14 00:09:00,
2013-05-13 20:24:00,45.7,30.0,30.00,SE,131,0.0,1.0,55,0.00,,,0.00,weatherlink.com 1.10,2013-05-14 00:24:00,
2013-05-13 20:39:00,44.7,31.0,30.01,SE,131,0.0,0.0,60,0.00,,,0.00,weatherlink.com 1.10,2013-05-14 00:39:00,
2013-05-13 20:54:00,44.1,33.0,30.02,SE,131,0.0,0.0,64,0.00,,,0.00,weatherlink.com 1.10,2013-05-14 00:54:00,
2013-05-13 21:09:00,43.5,32.0,30.03,SE,131,0.0,0.0,63,0.00,,,0.00,weatherlink.com 1.10,2013-05-14 01:09:00,
2013-05-13 21:24:00,42.9,32.0,30.04,SE,131,0.0,0.0,66,0.00,,,0.00,weatherlink.com 1.10,2013-05-14 01:24:00,
2013-05-13 21:39:00,42.9,33.0,30.04,SE,131,0.0,0.0,69,0.00,,,0.00,weatherlink.com 1.10,2013-05-14 01:39:00,
2013-05-13 21:54:00,42.5,34.0,30.05,SE,131,0.0,0.0,71,0.00,,,0.00,weatherlink.com 1.10,2013-05-14 01:54:00,
2013-05-13 22:09:00,42.4,33.0,30.05,ESE,115,0.0,0.0,70,0.00,,,0.00,weatherlink.com 1.10,2013-05-14 02:09:00,
2013-05-13 22:24:00,42.5,32.0,30.05,NNE,30,0.0,0.0,66,0.00,,,0.00,weatherlink.com 1.10,2013-05-14 02:24:00,
2013-05-13 22:39:00,42.4,32.0,30.04,NNW,340,0.0,1.0,68,0.00,,,0.00,weatherlink.com 1.10,2013-05-14 02:39:00,
2013-05-13 22:54:00,41.2,33.0,30.04,NNW,340,0.0,0.0,72,0.00,,,0.00,weatherlink.com 1.10,2013-05-14 02:54:00,
2013-05-13 23:09:00,40.6,33.0,30.04,NNW,340,0.0,1.0,73,0.00,,,0.00,weatherlink.com 1.10,2013-05-14 03:09:00,
2013-05-13 23:24:00,39.6,33.0,30.03,NNW,340,0.0,1.0,77,0.00,,,0.00,weatherlink.com 1.10,2013-05-14 03:24:00,
2013-05-13 23:39:00,40.0,32.0,30.03,NNW,342,0.0,1.0,72,0.00,,,0.00,weatherlink.com 1.10,2013-05-14 03:39:00,
2013-05-13 23:54:00,40.3,33.0,30.03,North,11,0.0,2.0,74,0.00,,,0.00,weatherlink.com 1.10,2013-05-14 03:54:00,